sensor_id;sensor_type;location;lat;lon;timestamp;pressure;altitude;pressure_sealevel;temperature;humidity
6134;BME280;3098;42.678;23.364;2022-09-09T00:02:18;95125.63;;;17.90;100.00
6134;BME280;3098;42.678;23.364;2022-09-09T00:04:53;95124.41;;;17.87;100.00
6134;BME280;3098;42.678;23.364;2022-09-09T00:07:36;95134.72;;;18.35;100.00
6134;BME280;3098;42.678;23.364;2022-09-09T00:10:15;95130.03;;;18.48;100.00
6134;BME280;3098;42.678;23.364;2022-09-09T00:12:51;95129.78;;;18.53;100.00
6134;BME280;3098;42.678;23.364;2022-09-09T00:15:25;95126.53;;;18.48;100.00
6134;BME280;3098;42.678;23.364;2022-09-09T00:17:57;95127.56;;;18.24;100.00
6134;BME280;3098;42.678;23.364;2022-09-09T00:20:30;95134.66;;;18.16;100.00
6134;BME280;3098;42.678;23.364;2022-09-09T00:23:10;95126.38;;;18.06;100.00
6134;BME280;3098;42.678;23.364;2022-09-09T00:25:42;95116.41;;;18.06;100.00
6134;BME280;3098;42.678;23.364;2022-09-09T00:28:18;95102.50;;;18.01;100.00
6134;BME280;3098;42.678;23.364;2022-09-09T00:30:47;95101.91;;;17.92;100.00
6134;BME280;3098;42.678;23.364;2022-09-09T00:33:16;95105.13;;;17.82;100.00
6134;BME280;3098;42.678;23.364;2022-09-09T00:35:47;95102.50;;;17.85;100.00
6134;BME280;3098;42.678;23.364;2022-09-09T00:38:19;95026.03;;;17.29;100.00
6134;BME280;3098;42.678;23.364;2022-09-09T00:40:50;95093.38;;;17.70;100.00
6134;BME280;3098;42.678;23.364;2022-09-09T00:43:28;95078.47;;;17.57;100.00
6134;BME280;3098;42.678;23.364;2022-09-09T00:48:54;95073.34;;;17.52;100.00
6134;BME280;3098;42.678;23.364;2022-09-09T00:51:30;95087.28;;;17.42;100.00
6134;BME280;3098;42.678;23.364;2022-09-09T00:54:27;95069.56;;;17.22;100.00
6134;BME280;3098;42.678;23.364;2022-09-09T00:57:03;95069.81;;;17.33;100.00
6134;BME280;3098;42.678;23.364;2022-09-09T00:59:43;95087.22;;;17.54;100.00
6134;BME280;3098;42.678;23.364;2022-09-09T01:02:18;95081.41;;;17.52;100.00
6134;BME280;3098;42.678;23.364;2022-09-09T01:04:48;95099.50;;;17.55;100.00
6134;BME280;3098;42.678;23.364;2022-09-09T01:07:17;95086.75;;;17.52;100.00
6134;BME280;3098;42.678;23.364;2022-09-09T01:09:52;95086.53;;;17.57;100.00
6134;BME280;3098;42.678;23.364;2022-09-09T01:12:26;95091.81;;;17.54;100.00
6134;BME280;3098;42.678;23.364;2022-09-09T01:15:03;95089.34;;;17.49;100.00
6134;BME280;3098;42.678;23.364;2022-09-09T01:17:33;95086.78;;;17.37;100.00
6134;BME280;3098;42.678;23.364;2022-09-09T01:20:07;95089.88;;;17.39;100.00
6134;BME280;3098;42.678;23.364;2022-09-09T01:22:47;95094.88;;;17.40;100.00
6134;BME280;3098;42.678;23.364;2022-09-09T01:25:29;95090.91;;;17.34;100.00
6134;BME280;3098;42.678;23.364;2022-09-09T01:28:02;95071.97;;;17.43;100.00
6134;BME280;3098;42.678;23.364;2022-09-09T01:30:32;95088.13;;;17.46;100.00
6134;BME280;3098;42.678;23.364;2022-09-09T01:33:00;95064.72;;;17.28;100.00
6134;BME280;3098;42.678;23.364;2022-09-09T01:35:36;95084.94;;;17.41;100.00
6134;BME280;3098;42.678;23.364;2022-09-09T01:38:04;95068.25;;;17.16;100.00
6134;BME280;3098;42.678;23.364;2022-09-09T01:40:32;95106.97;;;17.34;100.00
6134;BME280;3098;42.678;23.364;2022-09-09T01:43:01;95106.13;;;17.30;100.00
6134;BME280;3098;42.678;23.364;2022-09-09T01:45:30;95092.63;;;17.27;100.00
6134;BME280;3098;42.678;23.364;2022-09-09T01:47:58;95088.84;;;17.28;100.00
6134;BME280;3098;42.678;23.364;2022-09-09T01:50:28;95083.91;;;17.14;100.00
6134;BME280;3098;42.678;23.364;2022-09-09T01:52:59;95089.84;;;17.23;100.00
6134;BME280;3098;42.678;23.364;2022-09-09T01:55:30;95108.13;;;17.33;100.00
6134;BME280;3098;42.678;23.364;2022-09-09T01:58:11;95111.66;;;17.37;100.00
6134;BME280;3098;42.678;23.364;2022-09-09T02:00:45;95116.34;;;17.40;100.00
6134;BME280;3098;42.678;23.364;2022-09-09T02:03:20;95097.41;;;17.49;100.00
6134;BME280;3098;42.678;23.364;2022-09-09T02:05:56;95091.47;;;17.55;100.00
6134;BME280;3098;42.678;23.364;2022-09-09T02:08:29;95085.88;;;17.48;100.00
6134;BME280;3098;42.678;23.364;2022-09-09T02:11:05;95089.34;;;17.49;100.00
6134;BME280;3098;42.678;23.364;2022-09-09T02:13:36;95066.19;;;17.25;100.00
6134;BME280;3098;42.678;23.364;2022-09-09T02:16:07;95081.28;;;17.17;100.00
6134;BME280;3098;42.678;23.364;2022-09-09T02:18:37;95094.38;;;17.35;100.00
6134;BME280;3098;42.678;23.364;2022-09-09T02:21:06;95074.13;;;17.21;100.00
6134;BME280;3098;42.678;23.364;2022-09-09T02:23:35;95090.91;;;17.18;100.00
6134;BME280;3098;42.678;23.364;2022-09-09T02:26:03;94936.16;;;16.25;100.00
6134;BME280;3098;42.678;23.364;2022-09-09T02:28:32;95089.84;;;17.23;100.00
6134;BME280;3098;42.678;23.364;2022-09-09T02:31:02;95086.94;;;17.28;100.00
6134;BME280;3098;42.678;23.364;2022-09-09T02:33:33;95102.03;;;17.20;100.00
6134;BME280;3098;42.678;23.364;2022-09-09T02:36:03;95057.75;;;16.95;100.00
6134;BME280;3098;42.678;23.364;2022-09-09T02:38:36;95083.13;;;17.13;100.00
6134;BME280;3098;42.678;23.364;2022-09-09T02:41:05;95080.59;;;17.05;100.00
6134;BME280;3098;42.678;23.364;2022-09-09T02:43:33;95104.03;;;17.23;100.00
6134;BME280;3098;42.678;23.364;2022-09-09T02:46:10;95099.91;;;17.42;100.00
6134;BME280;3098;42.678;23.364;2022-09-09T02:48:50;95086.00;;;17.36;100.00
6134;BME280;3098;42.678;23.364;2022-09-09T02:51:24;95092.13;;;17.37;100.00
6134;BME280;3098;42.678;23.364;2022-09-09T02:54:04;95065.91;;;17.30;100.00
6134;BME280;3098;42.678;23.364;2022-09-09T02:56:40;95108.50;;;17.63;100.00
6134;BME280;3098;42.678;23.364;2022-09-09T02:59:08;95104.84;;;17.71;100.00
6134;BME280;3098;42.678;23.364;2022-09-09T03:01:38;95101.84;;;17.72;100.00
6134;BME280;3098;42.678;23.364;2022-09-09T03:04:05;95111.88;;;17.60;100.00
6134;BME280;3098;42.678;23.364;2022-09-09T03:06:32;95084.09;;;17.37;100.00
6134;BME280;3098;42.678;23.364;2022-09-09T03:09:01;95101.13;;;17.44;100.00
6134;BME280;3098;42.678;23.364;2022-09-09T03:11:28;95113.34;;;17.57;100.00
6134;BME280;3098;42.678;23.364;2022-09-09T03:13:55;95100.25;;;17.40;100.00
6134;BME280;3098;42.678;23.364;2022-09-09T03:16:22;95096.53;;;17.29;100.00
6134;BME280;3098;42.678;23.364;2022-09-09T03:18:51;95113.75;;;17.28;100.00
6134;BME280;3098;42.678;23.364;2022-09-09T03:21:18;95116.78;;;17.42;100.00
6134;BME280;3098;42.678;23.364;2022-09-09T03:23:45;95115.47;;;17.36;100.00
6134;BME280;3098;42.678;23.364;2022-09-09T03:26:12;95110.19;;;17.24;100.00
6134;BME280;3098;42.678;23.364;2022-09-09T03:28:41;95015.13;;;16.47;100.00
6134;BME280;3098;42.678;23.364;2022-09-09T03:31:09;95102.47;;;17.07;100.00
6134;BME280;3098;42.678;23.364;2022-09-09T03:33:37;95069.91;;;16.77;100.00
6134;BME280;3098;42.678;23.364;2022-09-09T03:36:05;95113.59;;;17.09;100.00
6134;BME280;3098;42.678;23.364;2022-09-09T03:38:33;95110.34;;;17.15;100.00
6134;BME280;3098;42.678;23.364;2022-09-09T03:41:00;95083.44;;;16.96;100.00
6134;BME280;3098;42.678;23.364;2022-09-09T03:43:28;95110.75;;;17.02;100.00
6134;BME280;3098;42.678;23.364;2022-09-09T03:45:56;95101.63;;;17.18;100.00
6134;BME280;3098;42.678;23.364;2022-09-09T03:48:24;95103.56;;;17.06;100.00
6134;BME280;3098;42.678;23.364;2022-09-09T03:50:54;95107.81;;;17.07;100.00
6134;BME280;3098;42.678;23.364;2022-09-09T03:53:25;95111.81;;;17.13;100.00
6134;BME280;3098;42.678;23.364;2022-09-09T03:55:54;95099.19;;;17.29;100.00
6134;BME280;3098;42.678;23.364;2022-09-09T03:58:22;95107.88;;;17.38;100.00
6134;BME280;3098;42.678;23.364;2022-09-09T04:00:56;95110.75;;;17.02;100.00
6134;BME280;3098;42.678;23.364;2022-09-09T04:03:24;95116.22;;;17.05;100.00
6134;BME280;3098;42.678;23.364;2022-09-09T04:05:51;95086.44;;;16.95;100.00
6134;BME280;3098;42.678;23.364;2022-09-09T04:08:19;95133.03;;;16.90;100.00
6134;BME280;3098;42.678;23.364;2022-09-09T04:10:49;95120.41;;;16.91;100.00
6134;BME280;3098;42.678;23.364;2022-09-09T04:13:17;95124.34;;;16.81;100.00
6134;BME280;3098;42.678;23.364;2022-09-09T04:15:50;95124.03;;;16.83;100.00
6134;BME280;3098;42.678;23.364;2022-09-09T04:18:18;95106.13;;;16.59;100.00
6134;BME280;3098;42.678;23.364;2022-09-09T04:20:46;95109.59;;;16.59;100.00
6134;BME280;3098;42.678;23.364;2022-09-09T04:23:14;95027.97;;;16.01;100.00
6134;BME280;3098;42.678;23.364;2022-09-09T04:25:44;95119.41;;;16.55;100.00
6134;BME280;3098;42.678;23.364;2022-09-09T04:28:14;95104.81;;;16.41;100.00
6134;BME280;3098;42.678;23.364;2022-09-09T04:30:42;95098.09;;;16.47;100.00
6134;BME280;3098;42.678;23.364;2022-09-09T04:33:09;95121.38;;;16.71;100.00
6134;BME280;3098;42.678;23.364;2022-09-09T04:35:37;95119.25;;;16.76;100.00
6134;BME280;3098;42.678;23.364;2022-09-09T04:38:04;95082.16;;;16.62;100.00
6134;BME280;3098;42.678;23.364;2022-09-09T04:40:33;95114.75;;;17.08;100.00
6134;BME280;3098;42.678;23.364;2022-09-09T04:43:00;95121.31;;;17.10;100.00
6134;BME280;3098;42.678;23.364;2022-09-09T04:45:30;95113.69;;;16.97;100.00
6134;BME280;3098;42.678;23.364;2022-09-09T04:47:58;95130.25;;;16.87;100.00
6134;BME280;3098;42.678;23.364;2022-09-09T04:50:26;95106.09;;;16.71;100.00
6134;BME280;3098;42.678;23.364;2022-09-09T04:52:54;95084.81;;;16.62;100.00
6134;BME280;3098;42.678;23.364;2022-09-09T04:55:21;95115.88;;;16.79;100.00
6134;BME280;3098;42.678;23.364;2022-09-09T04:57:48;95112.41;;;17.06;100.00
6134;BME280;3098;42.678;23.364;2022-09-09T05:00:15;95108.38;;;17.28;100.00
6134;BME280;3098;42.678;23.364;2022-09-09T05:02:45;95089.00;;;17.50;100.00
6134;BME280;3098;42.678;23.364;2022-09-09T05:05:13;95100.97;;;17.68;100.00
6134;BME280;3098;42.678;23.364;2022-09-09T05:07:40;95105.97;;;18.01;98.83
6134;BME280;3098;42.678;23.364;2022-09-09T05:10:08;95094.13;;;18.21;98.69
6134;BME280;3098;42.678;23.364;2022-09-09T05:12:36;95101.13;;;18.26;99.38
6134;BME280;3098;42.678;23.364;2022-09-09T05:15:03;95097.84;;;18.32;99.38
6134;BME280;3098;42.678;23.364;2022-09-09T05:17:31;95092.34;;;18.45;97.95
6134;BME280;3098;42.678;23.364;2022-09-09T05:19:59;95084.22;;;18.60;97.12
6134;BME280;3098;42.678;23.364;2022-09-09T05:22:28;95108.41;;;18.99;96.98
6134;BME280;3098;42.678;23.364;2022-09-09T05:24:55;95106.97;;;19.05;95.13
6134;BME280;3098;42.678;23.364;2022-09-09T05:27:23;95106.06;;;18.97;95.55
6134;BME280;3098;42.678;23.364;2022-09-09T05:29:51;95097.97;;;19.16;94.39
6134;BME280;3098;42.678;23.364;2022-09-09T05:32:18;95094.56;;;19.19;93.64
6134;BME280;3098;42.678;23.364;2022-09-09T05:34:45;95095.53;;;19.49;92.92
6134;BME280;3098;42.678;23.364;2022-09-09T05:37:13;95096.03;;;20.93;89.18
6134;BME280;3098;42.678;23.364;2022-09-09T05:39:42;95082.00;;;22.63;76.88
6134;BME280;3098;42.678;23.364;2022-09-09T05:42:09;95099.28;;;23.38;71.65
6134;BME280;3098;42.678;23.364;2022-09-09T05:44:36;95092.75;;;24.17;69.48
6134;BME280;3098;42.678;23.364;2022-09-09T05:47:03;95101.25;;;25.99;61.42
6134;BME280;3098;42.678;23.364;2022-09-09T05:49:30;95104.50;;;26.65;57.02
6134;BME280;3098;42.678;23.364;2022-09-09T05:51:57;95104.06;;;27.65;53.81
6134;BME280;3098;42.678;23.364;2022-09-09T05:54:25;95093.56;;;27.63;52.35
6134;BME280;3098;42.678;23.364;2022-09-09T05:56:53;95090.31;;;26.51;52.46
6134;BME280;3098;42.678;23.364;2022-09-09T05:59:20;95082.13;;;25.62;54.51
6134;BME280;3098;42.678;23.364;2022-09-09T06:01:48;95086.13;;;25.36;57.61
6134;BME280;3098;42.678;23.364;2022-09-09T06:04:16;95096.41;;;25.73;53.74
6134;BME280;3098;42.678;23.364;2022-09-09T06:06:43;95115.19;;;26.01;53.32
6134;BME280;3098;42.678;23.364;2022-09-09T06:09:10;95114.03;;;26.47;51.02
6134;BME280;3098;42.678;23.364;2022-09-09T06:11:39;95117.03;;;26.18;50.82
6134;BME280;3098;42.678;23.364;2022-09-09T06:14:07;95124.41;;;28.33;44.81
6134;BME280;3098;42.678;23.364;2022-09-09T06:16:35;95111.66;;;28.04;44.62
6134;BME280;3098;42.678;23.364;2022-09-09T06:19:03;95119.78;;;28.30;43.96
6134;BME280;3098;42.678;23.364;2022-09-09T06:21:32;95093.22;;;29.17;41.61
6134;BME280;3098;42.678;23.364;2022-09-09T06:24:00;95125.78;;;27.11;45.31
6134;BME280;3098;42.678;23.364;2022-09-09T06:26:29;95122.00;;;26.27;47.24
6134;BME280;3098;42.678;23.364;2022-09-09T06:28:59;95124.09;;;25.47;49.80
6134;BME280;3098;42.678;23.364;2022-09-09T06:31:29;95125.31;;;25.32;50.42
6134;BME280;3098;42.678;23.364;2022-09-09T06:33:59;95121.47;;;26.80;48.56
6134;BME280;3098;42.678;23.364;2022-09-09T06:36:27;95123.88;;;28.42;43.89
6134;BME280;3098;42.678;23.364;2022-09-09T06:38:55;95126.59;;;28.65;42.26
6134;BME280;3098;42.678;23.364;2022-09-09T06:41:24;95070.66;;;27.61;44.14
6134;BME280;3098;42.678;23.364;2022-09-09T06:43:52;95114.75;;;28.06;42.77
6134;BME280;3098;42.678;23.364;2022-09-09T06:46:23;95072.69;;;27.53;43.29
6134;BME280;3098;42.678;23.364;2022-09-09T06:48:53;95099.03;;;28.79;41.55
6134;BME280;3098;42.678;23.364;2022-09-09T06:51:22;95112.59;;;30.26;39.33
6134;BME280;3098;42.678;23.364;2022-09-09T06:53:52;95101.72;;;31.66;34.91
6134;BME280;3098;42.678;23.364;2022-09-09T06:56:21;95107.53;;;31.81;34.15
6134;BME280;3098;42.678;23.364;2022-09-09T06:58:50;95135.09;;;32.03;34.02
6134;BME280;3098;42.678;23.364;2022-09-09T07:01:19;95127.13;;;32.42;32.96
6134;BME280;3098;42.678;23.364;2022-09-09T07:03:49;95138.41;;;29.93;37.19
6134;BME280;3098;42.678;23.364;2022-09-09T07:06:18;95114.84;;;29.99;37.54
6134;BME280;3098;42.678;23.364;2022-09-09T07:08:49;95104.41;;;31.41;34.57
6134;BME280;3098;42.678;23.364;2022-09-09T07:11:18;95125.50;;;31.82;33.67
6134;BME280;3098;42.678;23.364;2022-09-09T07:13:46;95128.47;;;31.50;34.12
6134;BME280;3098;42.678;23.364;2022-09-09T07:16:14;95121.13;;;30.89;35.01
6134;BME280;3098;42.678;23.364;2022-09-09T07:18:42;95121.94;;;29.96;36.74
6134;BME280;3098;42.678;23.364;2022-09-09T07:21:12;95120.81;;;30.10;36.53
6134;BME280;3098;42.678;23.364;2022-09-09T07:23:40;95122.75;;;31.44;35.30
6134;BME280;3098;42.678;23.364;2022-09-09T07:26:08;95109.53;;;29.92;36.79
6134;BME280;3098;42.678;23.364;2022-09-09T07:28:36;95100.44;;;31.29;35.69
6134;BME280;3098;42.678;23.364;2022-09-09T07:31:03;95121.41;;;29.85;37.09
6134;BME280;3098;42.678;23.364;2022-09-09T07:33:31;95059.25;;;30.63;35.45
6134;BME280;3098;42.678;23.364;2022-09-09T07:36:04;95123.66;;;31.25;34.53
6134;BME280;3098;42.678;23.364;2022-09-09T07:38:38;95114.13;;;31.17;34.73
6134;BME280;3098;42.678;23.364;2022-09-09T07:41:07;95109.97;;;29.90;36.96
6134;BME280;3098;42.678;23.364;2022-09-09T07:43:37;95095.75;;;31.43;35.02
6134;BME280;3098;42.678;23.364;2022-09-09T07:46:04;95092.78;;;32.94;32.23
6134;BME280;3098;42.678;23.364;2022-09-09T07:48:31;95119.19;;;34.36;30.17
6134;BME280;3098;42.678;23.364;2022-09-09T07:51:08;95113.59;;;34.67;29.55
6134;BME280;3098;42.678;23.364;2022-09-09T07:53:37;95116.75;;;32.72;31.71
6134;BME280;3098;42.678;23.364;2022-09-09T07:56:06;95121.34;;;31.77;33.35
6134;BME280;3098;42.678;23.364;2022-09-09T07:58:35;95121.25;;;31.68;32.95
6134;BME280;3098;42.678;23.364;2022-09-09T08:01:06;95097.25;;;30.61;34.88
6134;BME280;3098;42.678;23.364;2022-09-09T08:03:34;95108.16;;;30.77;35.73
6134;BME280;3098;42.678;23.364;2022-09-09T08:06:03;95104.47;;;32.51;33.32
6134;BME280;3098;42.678;23.364;2022-09-09T08:08:30;95115.56;;;32.48;33.02
6134;BME280;3098;42.678;23.364;2022-09-09T08:11:08;95117.50;;;31.75;33.67
6134;BME280;3098;42.678;23.364;2022-09-09T08:13:36;95115.88;;;30.05;35.72
6134;BME280;3098;42.678;23.364;2022-09-09T08:16:07;95114.47;;;30.61;36.29
6134;BME280;3098;42.678;23.364;2022-09-09T08:18:34;95057.16;;;29.93;35.85
6134;BME280;3098;42.678;23.364;2022-09-09T08:21:09;95115.84;;;30.21;36.16
6134;BME280;3098;42.678;23.364;2022-09-09T08:23:39;95112.59;;;31.70;33.92
6134;BME280;3098;42.678;23.364;2022-09-09T08:26:11;95082.03;;;31.43;34.72
6134;BME280;3098;42.678;23.364;2022-09-09T08:28:38;95101.16;;;33.12;32.11
6134;BME280;3098;42.678;23.364;2022-09-09T08:31:11;95108.84;;;33.70;30.75
6134;BME280;3098;42.678;23.364;2022-09-09T08:33:39;95093.28;;;32.46;32.38
6134;BME280;3098;42.678;23.364;2022-09-09T08:36:09;95108.41;;;31.53;34.00
6134;BME280;3098;42.678;23.364;2022-09-09T08:38:36;95101.88;;;31.21;35.29
6134;BME280;3098;42.678;23.364;2022-09-09T08:41:35;95041.75;;;30.15;35.64
6134;BME280;3098;42.678;23.364;2022-09-09T08:44:07;95103.03;;;29.86;37.77
6134;BME280;3098;42.678;23.364;2022-09-09T08:46:44;95084.56;;;30.06;37.18
6134;BME280;3098;42.678;23.364;2022-09-09T08:49:35;95066.84;;;29.78;37.42
6134;BME280;3098;42.678;23.364;2022-09-09T08:52:12;95089.44;;;30.14;37.80
6134;BME280;3098;42.678;23.364;2022-09-09T08:54:41;95093.28;;;29.13;40.15
6134;BME280;3098;42.678;23.364;2022-09-09T08:57:14;95046.44;;;29.50;38.59
6134;BME280;3098;42.678;23.364;2022-09-09T08:59:45;95070.63;;;30.16;37.41
6134;BME280;3098;42.678;23.364;2022-09-09T09:02:16;95091.88;;;30.57;37.08
6134;BME280;3098;42.678;23.364;2022-09-09T09:04:56;95091.31;;;31.07;36.16
6134;BME280;3098;42.678;23.364;2022-09-09T09:07:33;95097.41;;;32.16;33.95
6134;BME280;3098;42.678;23.364;2022-09-09T09:10:12;95094.72;;;29.73;37.54
6134;BME280;3098;42.678;23.364;2022-09-09T09:12:44;95079.88;;;29.38;39.15
6134;BME280;3098;42.678;23.364;2022-09-09T09:15:18;95088.56;;;30.17;38.52
6134;BME280;3098;42.678;23.364;2022-09-09T09:17:46;95037.63;;;30.81;36.91
6134;BME280;3098;42.678;23.364;2022-09-09T09:20:15;95092.88;;;30.92;36.62
6134;BME280;3098;42.678;23.364;2022-09-09T09:22:48;95083.94;;;30.47;36.77
6134;BME280;3098;42.678;23.364;2022-09-09T09:25:18;95078.59;;;28.87;40.00
6134;BME280;3098;42.678;23.364;2022-09-09T09:27:56;95081.97;;;28.32;41.58
6134;BME280;3098;42.678;23.364;2022-09-09T09:30:29;95067.88;;;27.87;42.85
6134;BME280;3098;42.678;23.364;2022-09-09T09:33:01;95091.06;;;28.69;42.42
6134;BME280;3098;42.678;23.364;2022-09-09T09:35:29;95076.28;;;28.66;42.67
6134;BME280;3098;42.678;23.364;2022-09-09T09:37:57;95079.88;;;28.40;42.25
6134;BME280;3098;42.678;23.364;2022-09-09T09:40:26;95048.47;;;28.51;42.30
6134;BME280;3098;42.678;23.364;2022-09-09T09:42:57;95078.66;;;29.23;40.84
6134;BME280;3098;42.678;23.364;2022-09-09T09:45:32;95056.91;;;28.80;40.64
6134;BME280;3098;42.678;23.364;2022-09-09T09:48:00;95050.28;;;29.17;40.13
6134;BME280;3098;42.678;23.364;2022-09-09T09:50:29;95058.00;;;31.09;36.60
6134;BME280;3098;42.678;23.364;2022-09-09T09:52:59;95069.69;;;31.51;35.44
6134;BME280;3098;42.678;23.364;2022-09-09T09:55:28;95014.50;;;29.80;38.25
6134;BME280;3098;42.678;23.364;2022-09-09T09:58:03;95032.53;;;29.77;38.76
6134;BME280;3098;42.678;23.364;2022-09-09T10:00:30;95051.78;;;29.38;40.35
6134;BME280;3098;42.678;23.364;2022-09-09T10:02:59;95052.06;;;28.68;41.34
6134;BME280;3098;42.678;23.364;2022-09-09T10:05:28;95061.34;;;27.81;43.07
6134;BME280;3098;42.678;23.364;2022-09-09T10:08:03;95059.00;;;27.83;43.54
6134;BME280;3098;42.678;23.364;2022-09-09T10:10:43;95050.59;;;28.21;43.12
6134;BME280;3098;42.678;23.364;2022-09-09T10:13:17;95047.91;;;28.40;43.34
6134;BME280;3098;42.678;23.364;2022-09-09T10:15:58;95044.06;;;28.38;43.92
6134;BME280;3098;42.678;23.364;2022-09-09T10:18:45;95067.94;;;28.73;43.30
6134;BME280;3098;42.678;23.364;2022-09-09T10:27:17;95068.00;;;28.27;44.39
6134;BME280;3098;42.678;23.364;2022-09-09T10:30:01;95066.16;;;28.43;42.72
6134;BME280;3098;42.678;23.364;2022-09-09T10:32:40;95071.19;;;28.45;42.83
6134;BME280;3098;42.678;23.364;2022-09-09T10:35:14;95065.09;;;28.37;43.25
6134;BME280;3098;42.678;23.364;2022-09-09T10:38:15;95056.75;;;27.78;44.43
6134;BME280;3098;42.678;23.364;2022-09-09T10:40:48;95057.84;;;27.58;45.76
6134;BME280;3098;42.678;23.364;2022-09-09T10:43:36;95067.88;;;27.34;46.83
6134;BME280;3098;42.678;23.364;2022-09-09T10:46:14;95070.53;;;26.80;46.87
6134;BME280;3098;42.678;23.364;2022-09-09T10:48:56;95079.41;;;27.18;47.40
6134;BME280;3098;42.678;23.364;2022-09-09T10:51:35;95078.28;;;27.16;48.19
6134;BME280;3098;42.678;23.364;2022-09-09T10:54:25;95070.66;;;27.04;48.37
6134;BME280;3098;42.678;23.364;2022-09-09T10:56:57;95080.34;;;27.05;49.37
6134;BME280;3098;42.678;23.364;2022-09-09T10:59:28;95069.28;;;26.51;50.20
6134;BME280;3098;42.678;23.364;2022-09-09T11:02:02;95071.50;;;26.63;50.73
6134;BME280;3098;42.678;23.364;2022-09-09T11:04:40;95066.09;;;26.60;51.25
6134;BME280;3098;42.678;23.364;2022-09-09T11:07:13;95076.00;;;26.77;50.89
6134;BME280;3098;42.678;23.364;2022-09-09T11:09:49;95072.50;;;26.76;50.71
6134;BME280;3098;42.678;23.364;2022-09-09T11:12:20;95078.25;;;26.48;51.21
6134;BME280;3098;42.678;23.364;2022-09-09T11:14:51;95041.97;;;26.28;51.44
6134;BME280;3098;42.678;23.364;2022-09-09T11:17:24;95077.88;;;26.50;51.55
6134;BME280;3098;42.678;23.364;2022-09-09T11:19:53;95054.31;;;26.36;52.00
6134;BME280;3098;42.678;23.364;2022-09-09T11:22:29;95059.31;;;26.41;52.30
6134;BME280;3098;42.678;23.364;2022-09-09T11:25:01;95041.41;;;26.44;52.44
6134;BME280;3098;42.678;23.364;2022-09-09T11:27:37;95052.25;;;27.11;50.41
6134;BME280;3098;42.678;23.364;2022-09-09T11:30:18;95032.44;;;27.64;48.23
6134;BME280;3098;42.678;23.364;2022-09-09T11:35:57;95032.91;;;28.29;47.14
6134;BME280;3098;42.678;23.364;2022-09-09T11:38:29;95024.88;;;28.41;47.54
6134;BME280;3098;42.678;23.364;2022-09-09T11:41:02;95033.56;;;27.90;48.69
6134;BME280;3098;42.678;23.364;2022-09-09T11:43:33;95024.84;;;27.52;49.71
6134;BME280;3098;42.678;23.364;2022-09-09T11:46:06;95018.13;;;27.03;50.87
6134;BME280;3098;42.678;23.364;2022-09-09T11:48:37;94999.69;;;27.14;51.42
6134;BME280;3098;42.678;23.364;2022-09-09T11:51:07;95016.75;;;26.24;53.02
6134;BME280;3098;42.678;23.364;2022-09-09T11:53:47;94994.72;;;26.15;53.43
6134;BME280;3098;42.678;23.364;2022-09-09T11:56:25;94980.88;;;25.99;54.27
6134;BME280;3098;42.678;23.364;2022-09-09T11:58:58;94979.78;;;26.30;54.90
6134;BME280;3098;42.678;23.364;2022-09-09T12:01:44;94942.53;;;26.27;52.89
6134;BME280;3098;42.678;23.364;2022-09-09T12:04:26;94989.63;;;27.11;52.63
6134;BME280;3098;42.678;23.364;2022-09-09T12:06:56;94984.78;;;27.22;51.33
6134;BME280;3098;42.678;23.364;2022-09-09T12:09:30;94986.56;;;27.82;50.37
6134;BME280;3098;42.678;23.364;2022-09-09T12:12:07;94968.47;;;27.49;50.13
6134;BME280;3098;42.678;23.364;2022-09-09T12:14:37;94987.59;;;28.15;48.20
6134;BME280;3098;42.678;23.364;2022-09-09T12:17:19;94978.88;;;28.63;47.87
6134;BME280;3098;42.678;23.364;2022-09-09T12:20:00;94958.44;;;28.71;47.03
6134;BME280;3098;42.678;23.364;2022-09-09T12:22:38;94971.28;;;29.06;45.67
6134;BME280;3098;42.678;23.364;2022-09-09T12:25:17;94970.72;;;28.79;46.98
6134;BME280;3098;42.678;23.364;2022-09-09T12:27:57;94975.28;;;28.46;47.67
6134;BME280;3098;42.678;23.364;2022-09-09T12:30:29;94976.38;;;28.88;46.29
6134;BME280;3098;42.678;23.364;2022-09-09T12:33:02;94960.94;;;28.23;47.80
6134;BME280;3098;42.678;23.364;2022-09-09T12:35:31;94895.06;;;28.24;47.43
6134;BME280;3098;42.678;23.364;2022-09-09T12:38:00;94951.47;;;28.47;47.51
6134;BME280;3098;42.678;23.364;2022-09-09T12:40:30;94902.47;;;28.43;46.93
6134;BME280;3098;42.678;23.364;2022-09-09T12:43:00;94935.50;;;28.85;47.16
6134;BME280;3098;42.678;23.364;2022-09-09T12:45:30;94921.44;;;29.02;46.30
6134;BME280;3098;42.678;23.364;2022-09-09T12:48:00;94947.28;;;28.98;47.12
6134;BME280;3098;42.678;23.364;2022-09-09T12:50:33;94935.88;;;29.03;46.73
6134;BME280;3098;42.678;23.364;2022-09-09T12:53:06;94901.31;;;28.96;47.03
6134;BME280;3098;42.678;23.364;2022-09-09T12:55:36;94938.38;;;29.30;47.15
6134;BME280;3098;42.678;23.364;2022-09-09T12:58:05;94919.25;;;28.97;47.05
6134;BME280;3098;42.678;23.364;2022-09-09T13:00:34;94918.81;;;28.99;46.83
6134;BME280;3098;42.678;23.364;2022-09-09T13:03:14;94930.34;;;28.71;48.55
6134;BME280;3098;42.678;23.364;2022-09-09T13:05:44;94930.75;;;29.21;46.98
6134;BME280;3098;42.678;23.364;2022-09-09T13:08:13;94912.16;;;28.64;48.00
6134;BME280;3098;42.678;23.364;2022-09-09T13:10:44;94921.66;;;28.56;48.77
6134;BME280;3098;42.678;23.364;2022-09-09T13:13:14;94863.56;;;27.14;52.04
6134;BME280;3098;42.678;23.364;2022-09-09T13:15:49;94931.28;;;27.82;51.62
6134;BME280;3098;42.678;23.364;2022-09-09T13:18:20;94932.88;;;28.22;50.33
6134;BME280;3098;42.678;23.364;2022-09-09T13:20:50;94913.38;;;28.63;49.58
6134;BME280;3098;42.678;23.364;2022-09-09T13:23:18;94872.03;;;28.61;47.80
6134;BME280;3098;42.678;23.364;2022-09-09T13:25:54;94910.69;;;28.60;49.40
6134;BME280;3098;42.678;23.364;2022-09-09T13:28:23;94884.78;;;27.92;50.66
6134;BME280;3098;42.678;23.364;2022-09-09T13:30:58;94902.19;;;27.56;52.54
6134;BME280;3098;42.678;23.364;2022-09-09T13:33:31;94891.19;;;27.36;52.99
6134;BME280;3098;42.678;23.364;2022-09-09T13:36:02;94897.25;;;27.24;53.63
6134;BME280;3098;42.678;23.364;2022-09-09T13:38:32;94906.28;;;26.94;54.78
6134;BME280;3098;42.678;23.364;2022-09-09T13:41:03;94865.66;;;26.80;55.24
6134;BME280;3098;42.678;23.364;2022-09-09T13:43:32;94904.59;;;27.27;55.58